sensor_id;sensor_type;location;lat;lon;timestamp;P1;durP1;ratioP1;P2;durP2;ratioP2
52188;SDS011;38162;45.926;13.608;2023-06-19T00:02:02;6.18;;;4.72;;
52188;SDS011;38162;45.926;13.608;2023-06-19T00:04:28;6.70;;;4.30;;
52188;SDS011;38162;45.926;13.608;2023-06-19T00:06:54;7.55;;;4.63;;
52188;SDS011;38162;45.926;13.608;2023-06-19T00:09:20;5.35;;;4.65;;
52188;SDS011;38162;45.926;13.608;2023-06-19T00:11:45;10.70;;;4.80;;
52188;SDS011;38162;45.926;13.608;2023-06-19T00:14:11;8.02;;;4.70;;
52188;SDS011;38162;45.926;13.608;2023-06-19T00:16:37;5.60;;;4.15;;
52188;SDS011;38162;45.926;13.608;2023-06-19T00:19:03;7.65;;;5.07;;
52188;SDS011;38162;45.926;13.608;2023-06-19T00:21:28;6.00;;;4.82;;
52188;SDS011;38162;45.926;13.608;2023-06-19T00:23:55;8.48;;;4.38;;
52188;SDS011;38162;45.926;13.608;2023-06-19T00:26:21;5.63;;;4.50;;
52188;SDS011;38162;45.926;13.608;2023-06-19T00:28:50;6.65;;;4.72;;
52188;SDS011;38162;45.926;13.608;2023-06-19T00:31:16;11.00;;;4.53;;
52188;SDS011;38162;45.926;13.608;2023-06-19T00:33:43;6.25;;;4.60;;
52188;SDS011;38162;45.926;13.608;2023-06-19T00:36:12;6.25;;;4.57;;
52188;SDS011;38162;45.926;13.608;2023-06-19T00:38:39;9.93;;;4.78;;
52188;SDS011;38162;45.926;13.608;2023-06-19T00:41:04;10.27;;;4.38;;
52188;SDS011;38162;45.926;13.608;2023-06-19T00:43:31;5.30;;;4.25;;
52188;SDS011;38162;45.926;13.608;2023-06-19T00:46:00;7.63;;;4.40;;
52188;SDS011;38162;45.926;13.608;2023-06-19T00:48:27;13.57;;;5.07;;
52188;SDS011;38162;45.926;13.608;2023-06-19T00:50:53;9.95;;;4.85;;
52188;SDS011;38162;45.926;13.608;2023-06-19T00:53:19;6.97;;;5.00;;
52188;SDS011;38162;45.926;13.608;2023-06-19T00:55:46;6.28;;;5.18;;
52188;SDS011;38162;45.926;13.608;2023-06-19T00:58:13;6.90;;;4.13;;
52188;SDS011;38162;45.926;13.608;2023-06-19T01:00:40;12.75;;;4.97;;
52188;SDS011;38162;45.926;13.608;2023-06-19T01:03:05;7.50;;;4.60;;
52188;SDS011;38162;45.926;13.608;2023-06-19T01:05:31;6.82;;;4.30;;
52188;SDS011;38162;45.926;13.608;2023-06-19T01:10:42;8.88;;;5.05;;
52188;SDS011;38162;45.926;13.608;2023-06-19T01:15:49;5.65;;;4.53;;
52188;SDS011;38162;45.926;13.608;2023-06-19T01:18:15;6.55;;;4.60;;
52188;SDS011;38162;45.926;13.608;2023-06-19T01:20:41;10.00;;;4.07;;
52188;SDS011;38162;45.926;13.608;2023-06-19T01:23:08;7.85;;;4.43;;
52188;SDS011;38162;45.926;13.608;2023-06-19T01:25:34;7.25;;;4.75;;
52188;SDS011;38162;45.926;13.608;2023-06-19T01:28:00;6.18;;;4.80;;
52188;SDS011;38162;45.926;13.608;2023-06-19T01:30:29;4.80;;;3.90;;
52188;SDS011;38162;45.926;13.608;2023-06-19T01:32:56;10.23;;;3.72;;
52188;SDS011;38162;45.926;13.608;2023-06-19T01:35:29;7.30;;;4.45;;
52188;SDS011;38162;45.926;13.608;2023-06-19T01:37:59;10.95;;;4.45;;
52188;SDS011;38162;45.926;13.608;2023-06-19T01:40:26;7.07;;;4.47;;
52188;SDS011;38162;45.926;13.608;2023-06-19T01:42:57;8.20;;;4.10;;
52188;SDS011;38162;45.926;13.608;2023-06-19T01:45:26;10.93;;;4.50;;
52188;SDS011;38162;45.926;13.608;2023-06-19T01:47:52;7.30;;;4.22;;
52188;SDS011;38162;45.926;13.608;2023-06-19T01:50:18;9.48;;;4.80;;
52188;SDS011;38162;45.926;13.608;2023-06-19T01:52:45;5.10;;;4.40;;
52188;SDS011;38162;45.926;13.608;2023-06-19T01:55:11;6.78;;;4.53;;
52188;SDS011;38162;45.926;13.608;2023-06-19T01:57:37;7.45;;;4.72;;
52188;SDS011;38162;45.926;13.608;2023-06-19T02:00:03;8.30;;;4.70;;
52188;SDS011;38162;45.926;13.608;2023-06-19T02:02:33;5.80;;;4.53;;
52188;SDS011;38162;45.926;13.608;2023-06-19T02:04:59;6.18;;;4.60;;
52188;SDS011;38162;45.926;13.608;2023-06-19T02:07:24;8.18;;;4.65;;
52188;SDS011;38162;45.926;13.608;2023-06-19T02:09:50;9.80;;;4.43;;
52188;SDS011;38162;45.926;13.608;2023-06-19T02:12:16;7.95;;;4.93;;
52188;SDS011;38162;45.926;13.608;2023-06-19T02:14:41;5.55;;;4.55;;
52188;SDS011;38162;45.926;13.608;2023-06-19T02:17:07;5.90;;;4.53;;
52188;SDS011;38162;45.926;13.608;2023-06-19T02:19:33;6.70;;;5.10;;
52188;SDS011;38162;45.926;13.608;2023-06-19T02:21:58;8.32;;;5.15;;
52188;SDS011;38162;45.926;13.608;2023-06-19T02:24:24;10.55;;;4.80;;
52188;SDS011;38162;45.926;13.608;2023-06-19T02:26:50;8.30;;;4.75;;
52188;SDS011;38162;45.926;13.608;2023-06-19T02:29:16;7.80;;;4.63;;
52188;SDS011;38162;45.926;13.608;2023-06-19T02:31:41;7.03;;;4.65;;
52188;SDS011;38162;45.926;13.608;2023-06-19T02:34:07;9.15;;;4.80;;
52188;SDS011;38162;45.926;13.608;2023-06-19T02:36:36;9.23;;;4.32;;
52188;SDS011;38162;45.926;13.608;2023-06-19T02:39:04;5.82;;;4.22;;
52188;SDS011;38162;45.926;13.608;2023-06-19T02:41:31;6.40;;;4.30;;
52188;SDS011;38162;45.926;13.608;2023-06-19T02:43:57;6.10;;;4.20;;
52188;SDS011;38162;45.926;13.608;2023-06-19T02:46:22;8.07;;;4.57;;
52188;SDS011;38162;45.926;13.608;2023-06-19T02:48:48;6.35;;;4.43;;
52188;SDS011;38162;45.926;13.608;2023-06-19T02:51:14;5.22;;;4.10;;
52188;SDS011;38162;45.926;13.608;2023-06-19T02:53:39;7.55;;;4.22;;
52188;SDS011;38162;45.926;13.608;2023-06-19T02:56:06;6.22;;;4.28;;
52188;SDS011;38162;45.926;13.608;2023-06-19T02:58:32;7.40;;;4.20;;
52188;SDS011;38162;45.926;13.608;2023-06-19T03:00:59;9.65;;;4.43;;
52188;SDS011;38162;45.926;13.608;2023-06-19T03:03:25;10.52;;;4.20;;
52188;SDS011;38162;45.926;13.608;2023-06-19T03:05:51;6.10;;;4.10;;
52188;SDS011;38162;45.926;13.608;2023-06-19T03:08:16;10.18;;;4.45;;
52188;SDS011;38162;45.926;13.608;2023-06-19T03:10:42;5.10;;;4.10;;
52188;SDS011;38162;45.926;13.608;2023-06-19T03:13:08;6.15;;;3.80;;
52188;SDS011;38162;45.926;13.608;2023-06-19T03:15:33;9.23;;;4.50;;
52188;SDS011;38162;45.926;13.608;2023-06-19T03:17:59;7.60;;;4.38;;
52188;SDS011;38162;45.926;13.608;2023-06-19T03:20:29;10.80;;;4.57;;
52188;SDS011;38162;45.926;13.608;2023-06-19T03:22:55;7.70;;;4.25;;
52188;SDS011;38162;45.926;13.608;2023-06-19T03:25:20;8.00;;;4.88;;
52188;SDS011;38162;45.926;13.608;2023-06-19T03:27:46;6.95;;;4.50;;
52188;SDS011;38162;45.926;13.608;2023-06-19T03:30:11;12.45;;;4.97;;
52188;SDS011;38162;45.926;13.608;2023-06-19T03:32:37;14.23;;;5.03;;
52188;SDS011;38162;45.926;13.608;2023-06-19T03:35:03;11.40;;;5.00;;
52188;SDS011;38162;45.926;13.608;2023-06-19T03:37:30;8.48;;;4.68;;
52188;SDS011;38162;45.926;13.608;2023-06-19T03:39:57;6.25;;;4.70;;
52188;SDS011;38162;45.926;13.608;2023-06-19T03:42:23;6.30;;;4.82;;
52188;SDS011;38162;45.926;13.608;2023-06-19T03:44:48;10.52;;;4.63;;
52188;SDS011;38162;45.926;13.608;2023-06-19T03:47:14;7.70;;;4.78;;
52188;SDS011;38162;45.926;13.608;2023-06-19T03:49:41;7.63;;;4.90;;
52188;SDS011;38162;45.926;13.608;2023-06-19T03:52:07;11.90;;;5.45;;
52188;SDS011;38162;45.926;13.608;2023-06-19T03:54:33;11.82;;;5.53;;
52188;SDS011;38162;45.926;13.608;2023-06-19T03:56:58;9.52;;;4.72;;
52188;SDS011;38162;45.926;13.608;2023-06-19T03:59:24;6.45;;;5.07;;
52188;SDS011;38162;45.926;13.608;2023-06-19T04:01:50;9.43;;;4.63;;
52188;SDS011;38162;45.926;13.608;2023-06-19T04:04:16;7.32;;;4.15;;
52188;SDS011;38162;45.926;13.608;2023-06-19T04:06:42;4.80;;;3.92;;
52188;SDS011;38162;45.926;13.608;2023-06-19T04:09:07;10.65;;;4.38;;
52188;SDS011;38162;45.926;13.608;2023-06-19T04:11:33;6.18;;;4.10;;
52188;SDS011;38162;45.926;13.608;2023-06-19T04:13:59;6.15;;;4.07;;
52188;SDS011;38162;45.926;13.608;2023-06-19T04:16:24;6.63;;;4.05;;
52188;SDS011;38162;45.926;13.608;2023-06-19T04:18:50;5.60;;;4.13;;
52188;SDS011;38162;45.926;13.608;2023-06-19T04:21:15;4.80;;;3.70;;
52188;SDS011;38162;45.926;13.608;2023-06-19T04:23:41;6.15;;;3.83;;
52188;SDS011;38162;45.926;13.608;2023-06-19T04:26:07;6.60;;;4.25;;
52188;SDS011;38162;45.926;13.608;2023-06-19T04:28:32;7.43;;;3.95;;
52188;SDS011;38162;45.926;13.608;2023-06-19T04:30:58;7.18;;;4.18;;
52188;SDS011;38162;45.926;13.608;2023-06-19T04:33:29;8.25;;;4.40;;
52188;SDS011;38162;45.926;13.608;2023-06-19T04:35:55;10.50;;;4.95;;
52188;SDS011;38162;45.926;13.608;2023-06-19T04:38:21;15.73;;;4.47;;
52188;SDS011;38162;45.926;13.608;2023-06-19T04:40:52;18.05;;;4.97;;
52188;SDS011;38162;45.926;13.608;2023-06-19T04:43:18;11.45;;;4.60;;
52188;SDS011;38162;45.926;13.608;2023-06-19T04:45:44;10.95;;;4.40;;
52188;SDS011;38162;45.926;13.608;2023-06-19T04:48:10;8.90;;;4.47;;
52188;SDS011;38162;45.926;13.608;2023-06-19T04:50:36;8.25;;;4.50;;
52188;SDS011;38162;45.926;13.608;2023-06-19T04:53:02;8.07;;;4.15;;
52188;SDS011;38162;45.926;13.608;2023-06-19T04:55:27;10.77;;;5.20;;
52188;SDS011;38162;45.926;13.608;2023-06-19T04:57:53;8.48;;;4.70;;
52188;SDS011;38162;45.926;13.608;2023-06-19T05:00:19;5.30;;;3.75;;
52188;SDS011;38162;45.926;13.608;2023-06-19T05:02:46;9.90;;;4.72;;
52188;SDS011;38162;45.926;13.608;2023-06-19T05:05:13;5.95;;;4.03;;
52188;SDS011;38162;45.926;13.608;2023-06-19T05:07:39;10.20;;;4.18;;
52188;SDS011;38162;45.926;13.608;2023-06-19T05:10:05;11.02;;;4.38;;
52188;SDS011;38162;45.926;13.608;2023-06-19T05:12:31;9.57;;;5.40;;
52188;SDS011;38162;45.926;13.608;2023-06-19T05:14:59;11.57;;;5.00;;
52188;SDS011;38162;45.926;13.608;2023-06-19T05:17:25;8.18;;;4.45;;
52188;SDS011;38162;45.926;13.608;2023-06-19T05:19:50;8.52;;;4.47;;
52188;SDS011;38162;45.926;13.608;2023-06-19T05:22:16;9.95;;;4.60;;
52188;SDS011;38162;45.926;13.608;2023-06-19T05:24:43;11.88;;;4.82;;
52188;SDS011;38162;45.926;13.608;2023-06-19T05:27:10;19.92;;;5.00;;
52188;SDS011;38162;45.926;13.608;2023-06-19T05:29:35;12.80;;;5.22;;
52188;SDS011;38162;45.926;13.608;2023-06-19T05:32:01;7.40;;;4.13;;
52188;SDS011;38162;45.926;13.608;2023-06-19T05:34:27;8.00;;;4.40;;
52188;SDS011;38162;45.926;13.608;2023-06-19T05:36:52;5.38;;;4.35;;
52188;SDS011;38162;45.926;13.608;2023-06-19T05:39:18;8.25;;;4.20;;
52188;SDS011;38162;45.926;13.608;2023-06-19T05:41:44;6.32;;;3.95;;
52188;SDS011;38162;45.926;13.608;2023-06-19T05:44:10;8.77;;;5.07;;
52188;SDS011;38162;45.926;13.608;2023-06-19T05:46:40;8.23;;;4.18;;
52188;SDS011;38162;45.926;13.608;2023-06-19T05:49:06;5.88;;;4.03;;
52188;SDS011;38162;45.926;13.608;2023-06-19T05:51:32;5.10;;;4.00;;
52188;SDS011;38162;45.926;13.608;2023-06-19T05:53:58;6.15;;;4.15;;
52188;SDS011;38162;45.926;13.608;2023-06-19T05:56:28;9.80;;;4.38;;
52188;SDS011;38162;45.926;13.608;2023-06-19T05:59:01;6.43;;;3.95;;
52188;SDS011;38162;45.926;13.608;2023-06-19T06:01:27;7.10;;;4.78;;
52188;SDS011;38162;45.926;13.608;2023-06-19T06:03:54;8.55;;;4.40;;
52188;SDS011;38162;45.926;13.608;2023-06-19T06:06:20;6.25;;;4.43;;
52188;SDS011;38162;45.926;13.608;2023-06-19T06:08:47;4.60;;;3.92;;
52188;SDS011;38162;45.926;13.608;2023-06-19T06:11:13;5.00;;;4.20;;
52188;SDS011;38162;45.926;13.608;2023-06-19T06:13:38;8.25;;;4.00;;
52188;SDS011;38162;45.926;13.608;2023-06-19T06:16:04;7.50;;;4.28;;
52188;SDS011;38162;45.926;13.608;2023-06-19T06:18:29;6.93;;;3.70;;
52188;SDS011;38162;45.926;13.608;2023-06-19T06:20:55;10.20;;;3.95;;
52188;SDS011;38162;45.926;13.608;2023-06-19T06:23:21;5.20;;;4.30;;
52188;SDS011;38162;45.926;13.608;2023-06-19T06:25:47;8.02;;;4.40;;
52188;SDS011;38162;45.926;13.608;2023-06-19T06:28:13;7.88;;;4.28;;
52188;SDS011;38162;45.926;13.608;2023-06-19T06:30:39;7.65;;;4.28;;
52188;SDS011;38162;45.926;13.608;2023-06-19T06:33:05;7.07;;;4.40;;
52188;SDS011;38162;45.926;13.608;2023-06-19T06:35:31;9.07;;;4.32;;
52188;SDS011;38162;45.926;13.608;2023-06-19T06:37:57;6.50;;;4.38;;
52188;SDS011;38162;45.926;13.608;2023-06-19T06:40:22;6.75;;;4.32;;
52188;SDS011;38162;45.926;13.608;2023-06-19T06:42:48;6.53;;;5.03;;
52188;SDS011;38162;45.926;13.608;2023-06-19T06:45:14;9.73;;;4.80;;
52188;SDS011;38162;45.926;13.608;2023-06-19T06:47:40;6.88;;;4.13;;
52188;SDS011;38162;45.926;13.608;2023-06-19T06:50:06;5.75;;;4.43;;
52188;SDS011;38162;45.926;13.608;2023-06-19T06:52:32;5.47;;;4.30;;
52188;SDS011;38162;45.926;13.608;2023-06-19T06:54:58;8.15;;;4.57;;
52188;SDS011;38162;45.926;13.608;2023-06-19T06:57:24;11.32;;;4.45;;
52188;SDS011;38162;45.926;13.608;2023-06-19T06:59:50;6.20;;;4.20;;
52188;SDS011;38162;45.926;13.608;2023-06-19T07:02:15;7.35;;;4.05;;
52188;SDS011;38162;45.926;13.608;2023-06-19T07:04:41;5.47;;;4.20;;
52188;SDS011;38162;45.926;13.608;2023-06-19T07:07:07;10.60;;;4.93;;
52188;SDS011;38162;45.926;13.608;2023-06-19T07:09:33;4.85;;;4.13;;
52188;SDS011;38162;45.926;13.608;2023-06-19T07:11:59;8.13;;;4.72;;
52188;SDS011;38162;45.926;13.608;2023-06-19T07:14:29;10.10;;;4.78;;
52188;SDS011;38162;45.926;13.608;2023-06-19T07:16:55;6.50;;;4.63;;
52188;SDS011;38162;45.926;13.608;2023-06-19T07:19:20;8.57;;;5.20;;
52188;SDS011;38162;45.926;13.608;2023-06-19T07:21:46;7.03;;;4.78;;
52188;SDS011;38162;45.926;13.608;2023-06-19T07:24:14;5.50;;;4.80;;
52188;SDS011;38162;45.926;13.608;2023-06-19T07:26:40;10.55;;;4.68;;
52188;SDS011;38162;45.926;13.608;2023-06-19T07:29:05;6.45;;;4.55;;
52188;SDS011;38162;45.926;13.608;2023-06-19T07:31:31;8.05;;;4.38;;
52188;SDS011;38162;45.926;13.608;2023-06-19T07:33:57;9.30;;;4.30;;
52188;SDS011;38162;45.926;13.608;2023-06-19T07:36:22;11.02;;;5.05;;
52188;SDS011;38162;45.926;13.608;2023-06-19T07:38:48;9.57;;;5.07;;
52188;SDS011;38162;45.926;13.608;2023-06-19T07:41:14;10.38;;;4.40;;
52188;SDS011;38162;45.926;13.608;2023-06-19T07:43:40;7.28;;;4.22;;
52188;SDS011;38162;45.926;13.608;2023-06-19T07:46:05;7.05;;;4.45;;
52188;SDS011;38162;45.926;13.608;2023-06-19T07:48:31;5.40;;;4.05;;
52188;SDS011;38162;45.926;13.608;2023-06-19T07:50:57;6.82;;;4.38;;
52188;SDS011;38162;45.926;13.608;2023-06-19T07:53:22;5.10;;;4.10;;
52188;SDS011;38162;45.926;13.608;2023-06-19T07:55:48;5.35;;;3.88;;
52188;SDS011;38162;45.926;13.608;2023-06-19T07:58:14;5.65;;;4.00;;
52188;SDS011;38162;45.926;13.608;2023-06-19T08:00:39;7.13;;;4.15;;
52188;SDS011;38162;45.926;13.608;2023-06-19T08:03:05;6.10;;;3.88;;
52188;SDS011;38162;45.926;13.608;2023-06-19T08:05:31;7.68;;;3.90;;
52188;SDS011;38162;45.926;13.608;2023-06-19T08:07:58;8.68;;;3.78;;
52188;SDS011;38162;45.926;13.608;2023-06-19T08:10:24;5.55;;;3.70;;
52188;SDS011;38162;45.926;13.608;2023-06-19T08:12:50;6.70;;;4.18;;
52188;SDS011;38162;45.926;13.608;2023-06-19T08:15:16;4.80;;;4.03;;
52188;SDS011;38162;45.926;13.608;2023-06-19T08:17:42;4.07;;;3.65;;
52188;SDS011;38162;45.926;13.608;2023-06-19T08:20:08;6.18;;;4.20;;
52188;SDS011;38162;45.926;13.608;2023-06-19T08:22:34;7.78;;;3.63;;
52188;SDS011;38162;45.926;13.608;2023-06-19T08:25:01;10.45;;;3.85;;
52188;SDS011;38162;45.926;13.608;2023-06-19T08:27:27;5.22;;;4.07;;
52188;SDS011;38162;45.926;13.608;2023-06-19T08:29:53;4.20;;;3.80;;
52188;SDS011;38162;45.926;13.608;2023-06-19T08:32:18;11.57;;;4.38;;
52188;SDS011;38162;45.926;13.608;2023-06-19T08:34:44;10.25;;;5.28;;
52188;SDS011;38162;45.926;13.608;2023-06-19T08:37:10;10.43;;;4.50;;
52188;SDS011;38162;45.926;13.608;2023-06-19T08:39:36;6.55;;;4.40;;
52188;SDS011;38162;45.926;13.608;2023-06-19T08:42:07;9.30;;;4.38;;
52188;SDS011;38162;45.926;13.608;2023-06-19T08:44:34;6.22;;;4.40;;
52188;SDS011;38162;45.926;13.608;2023-06-19T08:47:04;7.10;;;4.22;;
52188;SDS011;38162;45.926;13.608;2023-06-19T08:49:31;6.50;;;4.35;;
52188;SDS011;38162;45.926;13.608;2023-06-19T08:52:03;6.97;;;4.88;;
52188;SDS011;38162;45.926;13.608;2023-06-19T08:54:29;11.10;;;4.85;;
52188;SDS011;38162;45.926;13.608;2023-06-19T08:56:56;7.70;;;4.50;;
52188;SDS011;38162;45.926;13.608;2023-06-19T08:59:25;8.38;;;4.18;;
52188;SDS011;38162;45.926;13.608;2023-06-19T09:01:52;7.82;;;4.50;;
52188;SDS011;38162;45.926;13.608;2023-06-19T09:04:23;6.03;;;4.47;;
52188;SDS011;38162;45.926;13.608;2023-06-19T09:09:21;4.95;;;4.35;;
52188;SDS011;38162;45.926;13.608;2023-06-19T09:14:42;6.50;;;4.35;;
52188;SDS011;38162;45.926;13.608;2023-06-19T09:17:13;9.23;;;5.03;;
52188;SDS011;38162;45.926;13.608;2023-06-19T09:19:49;8.45;;;4.25;;
52188;SDS011;38162;45.926;13.608;2023-06-19T09:22:16;8.25;;;4.82;;
52188;SDS011;38162;45.926;13.608;2023-06-19T09:24:46;8.27;;;4.45;;
52188;SDS011;38162;45.926;13.608;2023-06-19T09:27:19;10.57;;;5.22;;
52188;SDS011;38162;45.926;13.608;2023-06-19T09:29:46;7.75;;;4.45;;
52188;SDS011;38162;45.926;13.608;2023-06-19T09:32:16;8.20;;;4.47;;
52188;SDS011;38162;45.926;13.608;2023-06-19T09:34:43;4.95;;;4.10;;
52188;SDS011;38162;45.926;13.608;2023-06-19T09:37:09;6.43;;;4.55;;
52188;SDS011;38162;45.926;13.608;2023-06-19T09:39:38;9.80;;;5.13;;
52188;SDS011;38162;45.926;13.608;2023-06-19T09:42:08;11.40;;;4.80;;
52188;SDS011;38162;45.926;13.608;2023-06-19T09:44:39;6.20;;;4.97;;
52188;SDS011;38162;45.926;13.608;2023-06-19T09:49:42;7.50;;;4.88;;
52188;SDS011;38162;45.926;13.608;2023-06-19T09:52:12;7.72;;;4.93;;
52188;SDS011;38162;45.926;13.608;2023-06-19T09:54:38;6.50;;;4.75;;
52188;SDS011;38162;45.926;13.608;2023-06-19T09:57:06;7.70;;;4.93;;
52188;SDS011;38162;45.926;13.608;2023-06-19T09:59:33;5.75;;;4.45;;
52188;SDS011;38162;45.926;13.608;2023-06-19T10:01:59;9.15;;;4.90;;
52188;SDS011;38162;45.926;13.608;2023-06-19T10:04:25;6.82;;;4.90;;
52188;SDS011;38162;45.926;13.608;2023-06-19T10:06:51;12.10;;;4.75;;
52188;SDS011;38162;45.926;13.608;2023-06-19T10:09:17;5.07;;;3.97;;
52188;SDS011;38162;45.926;13.608;2023-06-19T10:11:44;6.47;;;4.85;;
52188;SDS011;38162;45.926;13.608;2023-06-19T10:14:20;7.50;;;4.25;;
52188;SDS011;38162;45.926;13.608;2023-06-19T10:16:46;7.30;;;4.60;;
52188;SDS011;38162;45.926;13.608;2023-06-19T10:19:16;10.23;;;4.90;;
52188;SDS011;38162;45.926;13.608;2023-06-19T10:21:43;6.88;;;4.57;;
52188;SDS011;38162;45.926;13.608;2023-06-19T10:24:13;8.05;;;4.15;;
52188;SDS011;38162;45.926;13.608;2023-06-19T10:26:40;7.22;;;4.38;;
52188;SDS011;38162;45.926;13.608;2023-06-19T10:29:15;6.15;;;4.18;;
52188;SDS011;38162;45.926;13.608;2023-06-19T10:31:42;7.20;;;3.88;;
52188;SDS011;38162;45.926;13.608;2023-06-19T10:34:09;4.28;;;3.85;;
52188;SDS011;38162;45.926;13.608;2023-06-19T10:36:35;6.45;;;3.88;;
52188;SDS011;38162;45.926;13.608;2023-06-19T10:39:01;6.15;;;3.90;;
52188;SDS011;38162;45.926;13.608;2023-06-19T10:41:27;6.82;;;3.95;;
52188;SDS011;38162;45.926;13.608;2023-06-19T10:43:53;5.97;;;3.90;;
52188;SDS011;38162;45.926;13.608;2023-06-19T10:46:23;7.53;;;3.92;;
52188;SDS011;38162;45.926;13.608;2023-06-19T10:48:50;6.45;;;4.07;;
52188;SDS011;38162;45.926;13.608;2023-06-19T10:51:19;7.35;;;4.05;;
52188;SDS011;38162;45.926;13.608;2023-06-19T10:53:45;7.05;;;4.50;;
52188;SDS011;38162;45.926;13.608;2023-06-19T10:56:11;7.53;;;4.25;;
52188;SDS011;38162;45.926;13.608;2023-06-19T10:58:37;8.13;;;3.95;;
52188;SDS011;38162;45.926;13.608;2023-06-19T11:01:02;7.82;;;4.35;;
52188;SDS011;38162;45.926;13.608;2023-06-19T11:03:28;8.57;;;4.40;;
52188;SDS011;38162;45.926;13.608;2023-06-19T11:05:56;4.68;;;3.90;;
52188;SDS011;38162;45.926;13.608;2023-06-19T11:08:22;5.22;;;3.85;;
52188;SDS011;38162;45.926;13.608;2023-06-19T11:10:49;5.45;;;3.90;;
52188;SDS011;38162;45.926;13.608;2023-06-19T11:13:16;7.55;;;3.95;;
52188;SDS011;38162;45.926;13.608;2023-06-19T11:15:44;8.13;;;3.83;;
52188;SDS011;38162;45.926;13.608;2023-06-19T11:18:10;9.18;;;4.43;;
52188;SDS011;38162;45.926;13.608;2023-06-19T11:20:47;6.60;;;4.28;;
52188;SDS011;38162;45.926;13.608;2023-06-19T11:23:26;4.65;;;4.03;;
52188;SDS011;38162;45.926;13.608;2023-06-19T11:25:53;4.63;;;3.78;;
52188;SDS011;38162;45.926;13.608;2023-06-19T11:28:22;6.40;;;4.07;;
52188;SDS011;38162;45.926;13.608;2023-06-19T11:30:49;5.13;;;4.15;;
52188;SDS011;38162;45.926;13.608;2023-06-19T11:33:22;6.63;;;4.68;;
52188;SDS011;38162;45.926;13.608;2023-06-19T11:35:48;4.65;;;3.83;;
52188;SDS011;38162;45.926;13.608;2023-06-19T11:38:21;10.63;;;5.40;;
52188;SDS011;38162;45.926;13.608;2023-06-19T11:40:51;10.13;;;4.25;;
52188;SDS011;38162;45.926;13.608;2023-06-19T11:43:27;6.68;;;4.05;;
52188;SDS011;38162;45.926;13.608;2023-06-19T11:46:03;14.20;;;4.55;;
52188;SDS011;38162;45.926;13.608;2023-06-19T11:48:34;8.45;;;4.15;;
52188;SDS011;38162;45.926;13.608;2023-06-19T11:51:02;7.80;;;4.38;;
52188;SDS011;38162;45.926;13.608;2023-06-19T11:53:28;7.85;;;4.20;;
52188;SDS011;38162;45.926;13.608;2023-06-19T11:55:54;5.00;;;4.07;;
52188;SDS011;38162;45.926;13.608;2023-06-19T11:58:21;5.45;;;4.28;;
52188;SDS011;38162;45.926;13.608;2023-06-19T12:00:47;5.93;;;4.43;;
52188;SDS011;38162;45.926;13.608;2023-06-19T12:03:14;10.30;;;4.60;;
52188;SDS011;38162;45.926;13.608;2023-06-19T12:05:40;7.10;;;4.60;;
52188;SDS011;38162;45.926;13.608;2023-06-19T12:08:06;5.85;;;4.68;;
52188;SDS011;38162;45.926;13.608;2023-06-19T12:10:32;13.18;;;4.53;;
52188;SDS011;38162;45.926;13.608;2023-06-19T12:12:58;5.55;;;4.63;;
52188;SDS011;38162;45.926;13.608;2023-06-19T12:15:24;7.80;;;4.60;;
52188;SDS011;38162;45.926;13.608;2023-06-19T12:17:50;7.85;;;4.70;;
52188;SDS011;38162;45.926;13.608;2023-06-19T12:20:17;11.10;;;4.50;;
52188;SDS011;38162;45.926;13.608;2023-06-19T12:22:43;9.32;;;4.95;;
52188;SDS011;38162;45.926;13.608;2023-06-19T12:25:09;6.45;;;4.65;;
52188;SDS011;38162;45.926;13.608;2023-06-19T12:27:35;5.85;;;4.22;;
52188;SDS011;38162;45.926;13.608;2023-06-19T12:30:02;8.02;;;4.60;;
52188;SDS011;38162;45.926;13.608;2023-06-19T12:32:29;7.53;;;4.63;;
52188;SDS011;38162;45.926;13.608;2023-06-19T12:34:54;6.60;;;4.68;;
52188;SDS011;38162;45.926;13.608;2023-06-19T12:37:20;9.07;;;4.75;;
52188;SDS011;38162;45.926;13.608;2023-06-19T12:39:47;7.47;;;4.95;;
52188;SDS011;38162;45.926;13.608;2023-06-19T12:42:13;7.15;;;4.57;;
52188;SDS011;38162;45.926;13.608;2023-06-19T12:44:41;12.98;;;5.30;;
52188;SDS011;38162;45.926;13.608;2023-06-19T12:47:07;7.93;;;5.25;;
52188;SDS011;38162;45.926;13.608;2023-06-19T12:49:33;12.60;;;5.30;;
52188;SDS011;38162;45.926;13.608;2023-06-19T12:51:59;9.30;;;5.53;;
52188;SDS011;38162;45.926;13.608;2023-06-19T12:54:25;7.60;;;4.40;;
52188;SDS011;38162;45.926;13.608;2023-06-19T12:56:52;7.90;;;4.97;;
52188;SDS011;38162;45.926;13.608;2023-06-19T12:59:18;6.15;;;4.93;;
52188;SDS011;38162;45.926;13.608;2023-06-19T13:01:44;8.30;;;4.72;;
52188;SDS011;38162;45.926;13.608;2023-06-19T13:04:11;11.90;;;5.38;;
52188;SDS011;38162;45.926;13.608;2023-06-19T13:06:37;7.90;;;5.03;;
52188;SDS011;38162;45.926;13.608;2023-06-19T13:09:04;8.20;;;5.22;;
52188;SDS011;38162;45.926;13.608;2023-06-19T13:11:31;12.57;;;5.38;;
52188;SDS011;38162;45.926;13.608;2023-06-19T13:13:59;7.30;;;5.18;;
52188;SDS011;38162;45.926;13.608;2023-06-19T13:16:25;7.32;;;4.85;;
52188;SDS011;38162;45.926;13.608;2023-06-19T13:18:51;9.60;;;5.03;;
52188;SDS011;38162;45.926;13.608;2023-06-19T13:21:17;8.80;;;5.22;;
52188;SDS011;38162;45.926;13.608;2023-06-19T13:23:43;8.60;;;5.32;;
52188;SDS011;38162;45.926;13.608;2023-06-19T13:26:09;5.82;;;4.65;;
52188;SDS011;38162;45.926;13.608;2023-06-19T13:28:35;8.88;;;5.47;;
52188;SDS011;38162;45.926;13.608;2023-06-19T13:31:02;15.45;;;5.55;;
52188;SDS011;38162;45.926;13.608;2023-06-19T13:33:28;9.18;;;5.30;;
52188;SDS011;38162;45.926;13.608;2023-06-19T13:35:54;9.40;;;5.13;;
52188;SDS011;38162;45.926;13.608;2023-06-19T13:38:20;10.77;;;5.40;;
52188;SDS011;38162;45.926;13.608;2023-06-19T13:40:46;9.57;;;5.40;;
52188;SDS011;38162;45.926;13.608;2023-06-19T13:43:12;11.18;;;5.65;;
52188;SDS011;38162;45.926;13.608;2023-06-19T13:45:38;8.48;;;5.63;;
52188;SDS011;38162;45.926;13.608;2023-06-19T13:48:04;13.50;;;5.78;;
52188;SDS011;38162;45.926;13.608;2023-06-19T13:50:31;7.95;;;6.13;;
52188;SDS011;38162;45.926;13.608;2023-06-19T13:52:58;12.52;;;6.00;;
52188;SDS011;38162;45.926;13.608;2023-06-19T13:55:24;13.07;;;6.05;;
52188;SDS011;38162;45.926;13.608;2023-06-19T13:57:50;13.95;;;5.72;;
52188;SDS011;38162;45.926;13.608;2023-06-19T14:00:15;9.00;;;5.85;;
52188;SDS011;38162;45.926;13.608;2023-06-19T14:02:41;10.45;;;5.55;;
52188;SDS011;38162;45.926;13.608;2023-06-19T14:05:07;7.95;;;5.55;;
52188;SDS011;38162;45.926;13.608;2023-06-19T14:07:34;9.48;;;5.50;;
52188;SDS011;38162;45.926;13.608;2023-06-19T14:10:01;9.32;;;5.47;;
52188;SDS011;38162;45.926;13.608;2023-06-19T14:12:29;7.80;;;5.47;;
52188;SDS011;38162;45.926;13.608;2023-06-19T14:14:55;16.17;;;6.10;;
52188;SDS011;38162;45.926;13.608;2023-06-19T14:17:21;9.50;;;5.70;;
52188;SDS011;38162;45.926;13.608;2023-06-19T14:19:47;8.35;;;5.80;;
52188;SDS011;38162;45.926;13.608;2023-06-19T14:22:13;6.78;;;5.45;;
52188;SDS011;38162;45.926;13.608;2023-06-19T14:24:39;8.82;;;6.07;;
52188;SDS011;38162;45.926;13.608;2023-06-19T14:27:04;8.10;;;5.63;;
52188;SDS011;38162;45.926;13.608;2023-06-19T14:29:30;10.13;;;5.65;;
52188;SDS011;38162;45.926;13.608;2023-06-19T14:31:56;8.05;;;5.95;;
52188;SDS011;38162;45.926;13.608;2023-06-19T14:34:22;7.43;;;5.38;;
52188;SDS011;38162;45.926;13.608;2023-06-19T14:36:48;6.90;;;5.53;;
52188;SDS011;38162;45.926;13.608;2023-06-19T14:39:13;7.32;;;5.45;;
52188;SDS011;38162;45.926;13.608;2023-06-19T14:41:39;7.13;;;5.93;;